Las horas y fechas están en horario UTC.
Sumar 1 hora en el horario de invierno y 2 en el de verano.

Informes METAR cercanos

 

LEZL - Sevilla (civ/Mil, Spain
Distance from station: NNE 24km
Actualización: 27/02/2024 00:30
Despejado
Despejado
 Viento del ONO
Viento: ONO 13 km/h
Temperatura: 9°C
Wind Chill: 7°C
Rocío: 4°C
Humedad: 71%
Barómetro: 1017 hPa
Summary: Despejado
Visibility: greater than 10 km
2024/02/27 00:30 LEZL 270030Z AUTO 29007KT CAVOK 09/04 Q1017
LEMO - Moron (sp-Usafb), Spain
Distance from station: E 38km
Actualización: 27/02/2024 00:30
Despejado
Despejado
 Viento del O
Viento: O 17 km/h
Temperatura: 7°C
Wind Chill: 4°C
Rocío: 5°C
Humedad: 87%
Barómetro: 1017 hPa
Summary: Despejado
Visibility: greater than 10 km
2024/02/27 00:30 LEMO 270030Z 26009KT CAVOK 07/05 Q1017 NOSIG
LEJR - Jerez (civ/Mil), Spain
Distance from station: S 53km
Actualización: 27/02/2024 00:30
Despejado
Despejado
 Viento del ONO
Viento: ONO 17 km/h
Temperatura: 9°C
Wind Chill: 7°C
Rocío: 5°C
Humedad: 76%
Barómetro: 1018 hPa
Summary: Despejado
Visibility: greater than 10 km
2024/02/27 00:30 LEJR 270030Z AUTO 30009KT CAVOK 09/05 Q1018
 
LERT - Rota Naval Stati, Spain
Distance from station: SSO 71km
Actualización: 27/02/2024 00:30
Despejado
Despejado
 Viento del NO
Viento: NO 24 km/h
Temperatura: 11°C
Rocío: 6°C
Humedad: 72%
Barómetro: 1018 hPa
Summary: Despejado
Visibility: greater than 10 km
2024/02/27 00:30 LERT 270030Z 32013KT 290V350 CAVOK 11/06 Q1018 NOSIG
LEBA - Cordoba Airport, Spain
Distance from station: ENE 128km
Actualización: 27/02/2024 00:30
Despejado
Despejado
 Viento del OSO
Viento: OSO 9 km/h
Temperatura: 9°C
Wind Chill: 7°C
Rocío: 3°C
Humedad: 66%
Barómetro: 1015 hPa
Summary: Despejado
Visibility: greater than 10 km
2024/02/27 00:30 LEBA 270030Z AUTO 24005KT 210V280 CAVOK 09/03 Q1015
LXGB - Gibraltar (civ/M, Gibraltar
Distance from station: SSE 137km
Actualización: 27/02/2024 00:20
Despejado
Despejado
 Viento del ONO
Viento: ONO 31 km/h
Temperatura: 12°C
Rocío: 6°C
Humedad: 67%
Barómetro: 1016 hPa
Clouds: Despejado
Visibility: 10 km
2024/02/27 00:20 LXGB 270020Z AUTO 29017KT 9999 NCD 12/06 Q1016
 
LEMG - Malaga (civ/Mil), Spain
Distance from station: ESE 150km
Actualización: 27/02/2024 00:30
Few Clouds
Few Clouds
 Viento del O
Viento: O 15 km/h
Temperatura: 12°C
Rocío: 2°C
Humedad: 51%
Barómetro: 1015 hPa
Clouds: Few Clouds
Visibility: 10 km
Cloud details: Few Clouds 1768 m
2024/02/27 00:30 LEMG 270030Z 27008KT 240V310 9999 FEW058 12/02 Q1015 NOSIG
GMTT - Tangier/Boukhalf, Morocco
Distance from station: S 169km
Actualización: 27/02/2024 00:30
Parcialmente nublado
Parcialmente nublado
 Viento del NO
Viento: NO 24 km/h
Temperatura: 14°C
Rocío: 8°C
Humedad: 67%
Barómetro: 1017 hPa
Clouds: Parcialmente nublado
Visibility: 8 km
Cloud details: Parcialmente nublado 1006 m
2024/02/27 00:30 GMTT 270030Z 31013KT 280V340 8000 SCT033 14/08 Q1017 NOSIG
LPFR - Faro, Portugal
Distance from station: O 172km
Actualización: 27/02/2024 00:30
Despejado
Despejado
 Viento del NNO
Viento: NNO 20 km/h
Temperatura: 11°C
Rocío: 5°C
Humedad: 67%
Barómetro: 1020 hPa
Summary: Despejado
Visibility: greater than 10 km
2024/02/27 00:30 LPFR 270030Z 33011KT CAVOK 11/05 Q1020
 
LPBJ - Beja (por/Ger-Af, Portugal
Distance from station: ONO 192km
Actualización: 27/02/2024 00:00
Despejado
Despejado
 Viento del ONO
Viento: ONO 20 km/h
Temperatura: 8°C
Wind Chill: 4°C
Rocío: 5°C
Humedad: 82%
Barómetro: 1020 hPa
Summary: Despejado
Visibility: greater than 10 km
2024/02/27 00:00 LPBJ 270000Z 30011KT CAVOK 08/05 Q1020
LEBZ - Talavera Ab/Bada, Spain
Distance from station: NNO 194km
Actualización: 26/02/2024 20:00
NOT Current
Despejado
Despejado
 Viento del O
Viento: O 19 km/h
Temperatura: 10°C
Wind Chill: 7°C
Rocío: 5°C
Humedad: 71%
Barómetro: 1015 hPa
Summary: Despejado
Visibility: greater than 10 km
2024/02/26 20:00 LEBZ 262000Z 26010KT CAVOK 10/05 Q1015
LEMD - Madrid/Barajas, Spain
Distance from station: NE 415km
Actualización: 27/02/2024 00:30
Muy nuboso
Muy nuboso
 Viento del NO
Viento: NO 28 km/h
Temperatura: 6°C
Wind Chill: 2°C
Rocío: -2°C
Humedad: 57%
Barómetro: 1013 hPa
Clouds: Muy nuboso
Visibility: 10 km
Cloud details: Few Clouds 1524 m
Muy nuboso 2012 m
2024/02/27 00:30 LEMD 270030Z 32015KT 290V350 9999 FEW050 BKN066 06/M02 Q1013 NOSIG